Station History

Weather Underground - logo

Station Historical Data
Daily Summary for July 13, 2017 Units:  English    Metric   Both
« Previous Day
Next Day »
Daily Weekly Monthly Yearly Custom
  High: Low: Average:
Temperature: 99.8 °F 67.5 °F 84.7 °F
Dew Point: 67.0 °F 55.5 °F 61.3 °F
Humidity: 75 % 24 % 49 %
Wind Speed: 4.6 mph 0.0 mph 1.6 mph
Wind Gust: 4.6 mph - -
Wind:- - SSW
Pressure: 29.92 in 29.81 in -
Precipitation: 0.00 in    
Historical Graphs
 
 
Tabular Data for July 13, 2017
Time Temperature Dew Point Pressure Wind Wind Speed Wind Gust Humidity Rainfall Rate (Hourly)
00:02 76.4 °F 64.2 °F 29.83 in Calm     66 % 0.00 in
00:07 76.0 °F 64.2 °F 29.83 in Calm     67 % 0.00 in
00:12 75.6 °F 65.5 °F 29.83 in Calm     71 % 0.00 in
00:17 75.4 °F 65.3 °F 29.83 in Calm     71 % 0.00 in
00:22 75.4 °F 64.5 °F 29.83 in Calm     69 % 0.00 in
00:27 75.5 °F 64.6 °F 29.83 in Calm     69 % 0.00 in
00:32 75.4 °F 64.9 °F 29.83 in Calm     70 % 0.00 in
00:37 74.8 °F 64.4 °F 29.83 in Calm     70 % 0.00 in
00:42 74.2 °F 63.8 °F 29.83 in Calm     70 % 0.00 in
00:47 74.0 °F 63.6 °F 29.83 in Calm     70 % 0.00 in
00:52 74.3 °F 63.1 °F 29.83 in Calm     68 % 0.00 in
00:57 74.3 °F 63.1 °F 29.83 in Calm     68 % 0.00 in
01:02 74.1 °F 62.9 °F 29.83 in Calm     68 % 0.00 in
01:07 74.0 °F 63.2 °F 29.84 in Calm     69 % 0.00 in
01:12 73.9 °F 62.7 °F 29.84 in Calm     68 % 0.00 in
01:17 74.0 °F 62.8 °F 29.84 in Calm     68 % 0.00 in
01:22 74.0 °F 62.8 °F 29.84 in Calm     68 % 0.00 in
01:27 73.9 °F 64.3 °F 29.84 in Calm     72 % 0.00 in
01:33 73.9 °F 62.2 °F 29.84 in Calm     67 % 0.00 in
01:38 74.1 °F 62.9 °F 29.84 in Calm     68 % 0.00 in
01:43 74.2 °F 61.7 °F 29.84 in Calm     65 % 0.00 in
01:48 74.2 °F 61.7 °F 29.84 in Calm     65 % 0.00 in
01:53 74.0 °F 61.5 °F 29.84 in Calm     65 % 0.00 in
01:58 74.1 °F 61.6 °F 29.84 in Calm     65 % 0.00 in
02:03 74.0 °F 62.3 °F 29.84 in Calm     67 % 0.00 in
02:08 73.6 °F 62.4 °F 29.84 in Calm     68 % 0.00 in
02:13 73.0 °F 62.2 °F 29.84 in Calm     69 % 0.00 in
02:18 72.4 °F 62.1 °F 29.84 in Calm     70 % 0.00 in
02:23 71.9 °F 62.0 °F 29.84 in Calm     71 % 0.00 in
02:28 71.6 °F 61.3 °F 29.84 in Calm     70 % 0.00 in
02:33 71.6 °F 61.7 °F 29.84 in Calm   0.1 mph 71 % 0.00 in
02:38 71.5 °F 62.0 °F 29.84 in Calm     72 % 0.00 in
02:43 71.3 °F 62.2 °F 29.84 in SE 1.2 mph   73 % 0.00 in
02:48 71.2 °F 62.5 °F 29.84 in SE 1.2 mph   74 % 0.00 in
02:53 71.1 °F 62.4 °F 29.84 in Calm     74 % 0.00 in
02:58 71.0 °F 62.3 °F 29.85 in Calm     74 % 0.00 in
03:03 70.8 °F 62.5 °F 29.85 in SE 1.2 mph   75 % 0.00 in
03:08 70.8 °F 62.1 °F 29.85 in Calm     74 % 0.00 in
03:13 70.7 °F 62.0 °F 29.85 in SE 1.2 mph   74 % 0.00 in
03:18 70.8 °F 62.1 °F 29.85 in SE 1.2 mph   74 % 0.00 in
03:23 70.9 °F 61.8 °F 29.85 in Calm     73 % 0.00 in
03:28 70.8 °F 61.7 °F 29.85 in Calm     73 % 0.00 in
03:34 70.6 °F 61.5 °F 29.85 in Calm     73 % 0.00 in
03:39 70.4 °F 61.3 °F 29.85 in Calm     73 % 0.00 in
03:44 70.3 °F 61.2 °F 29.85 in Calm     73 % 0.00 in
03:49 70.2 °F 61.1 °F 29.85 in Calm     73 % 0.00 in
03:54 70.1 °F 61.4 °F 29.85 in Calm     74 % 0.00 in
03:59 69.9 °F 60.8 °F 29.85 in Calm     73 % 0.00 in
04:04 69.8 °F 60.4 °F 29.85 in Calm     72 % 0.00 in
04:09 69.7 °F 59.9 °F 29.85 in Calm     71 % 0.00 in
04:14 69.6 °F 59.8 °F 29.86 in Calm     71 % 0.00 in
04:19 69.5 °F 60.1 °F 29.86 in Calm     72 % 0.00 in
04:24 69.3 °F 60.3 °F 29.86 in Calm     73 % 0.00 in
04:29 69.1 °F 60.1 °F 29.86 in Calm     73 % 0.00 in
04:31 69.1 °F 59.7 °F 29.86 in SE 1.2 mph 1.2 mph 72 % 0.00 in
04:36 69.3 °F 59.5 °F 29.86 in SE 1.2 mph 1.2 mph 71 % 0.00 in
04:41 69.3 °F 59.5 °F 29.87 in SE 1.2 mph 1.2 mph 71 % 0.00 in
04:46 69.2 °F 59.8 °F 29.86 in Calm     72 % 0.00 in
04:51 69.0 °F 59.6 °F 29.87 in Calm     72 % 0.00 in
04:56 68.8 °F 59.4 °F 29.87 in Calm     72 % 0.00 in
05:01 68.6 °F 59.6 °F 29.87 in SE 1.2 mph   73 % 0.00 in
05:06 68.5 °F 59.5 °F 29.87 in SE 1.2 mph   73 % 0.00 in
05:11 68.3 °F 58.9 °F 29.87 in SE 1.2 mph 1.2 mph 72 % 0.00 in
05:12 68.3 °F 58.9 °F 29.87 in SE 1.2 mph 1.2 mph 72 % 0.00 in
05:17 68.1 °F 58.7 °F 29.87 in SE 1.2 mph 1.2 mph 72 % 0.00 in
05:22 67.9 °F 58.9 °F 29.87 in SE 1.2 mph 1.2 mph 73 % 0.00 in
05:27 67.8 °F 58.8 °F 29.87 in Calm   0.2 mph 73 % 0.00 in
05:32 67.6 °F 59.0 °F 29.87 in Calm     74 % 0.00 in
05:37 67.5 °F 58.9 °F 29.87 in Calm     74 % 0.00 in
05:42 67.5 °F 58.9 °F 29.88 in SE 1.2 mph   74 % 0.00 in
05:47 67.5 °F 59.3 °F 29.88 in SE 1.2 mph   75 % 0.00 in
05:52 67.5 °F 59.3 °F 29.88 in SE 1.2 mph   75 % 0.00 in
05:57 67.5 °F 59.3 °F 29.88 in SE 1.2 mph 1.2 mph 75 % 0.00 in
06:02 67.5 °F 58.9 °F 29.88 in SE 1.2 mph 1.2 mph 74 % 0.00 in
06:07 67.5 °F 59.3 °F 29.88 in Calm     75 % 0.00 in
06:12 67.5 °F 58.9 °F 29.89 in Calm     74 % 0.00 in
06:17 67.6 °F 59.0 °F 29.89 in Calm     74 % 0.00 in
06:22 67.7 °F 59.5 °F 29.89 in SE 1.2 mph   75 % 0.00 in
06:27 67.9 °F 59.3 °F 29.89 in SE 1.2 mph 1.2 mph 74 % 0.00 in
06:32 68.1 °F 59.1 °F 29.89 in SE 2.3 mph 2.3 mph 73 % 0.00 in
06:37 68.4 °F 59.4 °F 29.89 in ESE 1.2 mph 1.2 mph 73 % 0.00 in
06:42 68.6 °F 59.6 °F 29.90 in ESE 1.2 mph 1.2 mph 73 % 0.00 in
06:47 68.8 °F 59.8 °F 29.90 in ESE 1.2 mph 1.2 mph 73 % 0.00 in
06:52 69.3 °F 59.9 °F 29.90 in ESE 1.0 mph 1.0 mph 72 % 0.00 in
06:57 70.1 °F 60.3 °F 29.90 in SE 1.2 mph 1.2 mph 71 % 0.00 in
07:02 70.8 °F 60.5 °F 29.90 in SE 1.2 mph 1.2 mph 70 % 0.00 in
07:07 71.6 °F 60.5 °F 29.90 in ESE 1.2 mph 1.2 mph 68 % 0.00 in
07:12 72.1 °F 60.5 °F 29.90 in SE 2.3 mph   67 % 0.00 in
07:17 72.7 °F 61.1 °F 29.90 in East 1.2 mph   67 % 0.00 in
07:22 73.1 °F 60.6 °F 29.90 in SE 2.3 mph 2.3 mph 65 % 0.00 in
07:27 73.7 °F 60.3 °F 29.91 in SSE 2.3 mph 2.3 mph 63 % 0.00 in
07:32 74.4 °F 61.0 °F 29.91 in SSE 2.3 mph 2.3 mph 63 % 0.00 in
07:37 74.9 °F 60.5 °F 29.91 in ESE 3.5 mph 3.5 mph 61 % 0.00 in
07:42 75.2 °F 60.4 °F 29.91 in ESE 1.2 mph 1.2 mph 60 % 0.00 in
07:47 75.6 °F 60.7 °F 29.91 in SSE 2.3 mph 2.3 mph 60 % 0.00 in
07:52 75.8 °F 60.9 °F 29.91 in South 3.0 mph 3.0 mph 60 % 0.00 in
07:57 76.0 °F 60.6 °F 29.91 in NE 3.5 mph 3.5 mph 59 % 0.00 in
08:02 76.2 °F 59.9 °F 29.91 in East 2.3 mph 2.3 mph 57 % 0.00 in
08:07 76.6 °F 59.7 °F 29.91 in SE 3.5 mph 3.5 mph 56 % 0.00 in
08:12 77.3 °F 59.9 °F 29.91 in SE 3.5 mph 3.5 mph 55 % 0.00 in
08:17 77.8 °F 59.8 °F 29.91 in NE 3.5 mph 3.5 mph 54 % 0.00 in
08:22 78.4 °F 59.3 °F 29.91 in South 3.5 mph 3.5 mph 52 % 0.00 in
08:27 79.0 °F 60.4 °F 29.91 in SSE 3.5 mph 3.5 mph 53 % 0.00 in
08:29 79.2 °F 60.6 °F 29.91 in South 2.0 mph 2.0 mph 53 % 0.00 in
08:34 79.8 °F 60.6 °F 29.91 in SE 2.3 mph 2.3 mph 52 % 0.00 in
08:39 80.4 °F 60.1 °F 29.91 in ENE 3.5 mph 3.5 mph 50 % 0.00 in
08:44 80.6 °F 60.2 °F 29.92 in SSE 3.5 mph 3.5 mph 50 % 0.00 in
08:49 81.0 °F 60.6 °F 29.92 in East 3.5 mph 3.5 mph 50 % 0.00 in
08:54 81.6 °F 61.2 °F 29.91 in SSE 1.2 mph   50 % 0.00 in
08:59 82.3 °F 60.6 °F 29.91 in East 3.0 mph 3.0 mph 48 % 0.00 in
09:04 82.8 °F 61.1 °F 29.91 in ENE 3.5 mph 3.5 mph 48 % 0.00 in
09:09 83.4 °F 61.1 °F 29.91 in SSE 3.5 mph 3.5 mph 47 % 0.00 in
09:14 83.8 °F 63.2 °F 29.91 in Calm     50 % 0.00 in
09:19 84.5 °F 61.4 °F 29.91 in SE 3.5 mph 3.5 mph 46 % 0.00 in
09:24 84.9 °F 61.2 °F 29.91 in SE 3.5 mph 3.5 mph 45 % 0.00 in
09:29 84.9 °F 61.8 °F 29.91 in SSE 3.5 mph 3.5 mph 46 % 0.00 in
09:34 85.5 °F 61.7 °F 29.91 in South 3.5 mph 3.5 mph 45 % 0.00 in
09:40 85.5 °F 61.7 °F 29.91 in SSW 2.3 mph 2.3 mph 45 % 0.00 in
09:45 85.7 °F 60.6 °F 29.91 in SSW 3.0 mph 3.1 mph 43 % 0.00 in
09:50 85.9 °F 61.5 °F 29.91 in ENE 3.5 mph 3.5 mph 44 % 0.00 in
09:55 86.2 °F 61.7 °F 29.91 in SSE 3.5 mph 3.5 mph 44 % 0.00 in
10:00 86.2 °F 61.7 °F 29.91 in SE 3.5 mph 3.5 mph 44 % 0.00 in
10:05 86.7 °F 61.5 °F 29.91 in SSE 3.5 mph 3.5 mph 43 % 0.00 in
10:10 87.3 °F 62.7 °F 29.91 in SE 4.6 mph 4.6 mph 44 % 0.00 in
10:15 87.7 °F 63.1 °F 29.91 in East 1.2 mph 1.2 mph 44 % 0.00 in
10:20 87.9 °F 63.3 °F 29.91 in SE 2.3 mph 2.3 mph 44 % 0.00 in
10:25 88.1 °F 63.4 °F 29.91 in SE 3.5 mph 3.5 mph 44 % 0.00 in
10:27 88.2 °F 64.2 °F 29.91 in NE 1.2 mph 1.2 mph 45 % 0.00 in
10:32 88.2 °F 64.2 °F 29.91 in NW 1.2 mph 1.2 mph 45 % 0.00 in
10:37 88.3 °F 64.3 °F 29.91 in North 3.5 mph 3.5 mph 45 % 0.00 in
10:42 88.3 °F 63.6 °F 29.91 in NNE 3.5 mph 3.5 mph 44 % 0.00 in
10:47 88.8 °F 65.4 °F 29.91 in WSW 2.0 mph 2.0 mph 46 % 0.00 in
10:52 89.2 °F 63.8 °F 29.91 in SE 3.5 mph 3.5 mph 43 % 0.00 in
10:57 89.4 °F 64.0 °F 29.91 in NNE 2.0 mph 2.0 mph 43 % 0.00 in
11:02 89.7 °F 64.2 °F 29.91 in SSE 2.3 mph 2.3 mph 43 % 0.00 in
11:07 90.0 °F 62.4 °F 29.91 in SSE 3.5 mph 3.5 mph 40 % 0.00 in
11:12 90.0 °F 63.8 °F 29.91 in ENE 2.3 mph 2.3 mph 42 % 0.00 in
11:17 90.4 °F 63.5 °F 29.91 in ESE 3.5 mph 3.5 mph 41 % 0.00 in
11:22 90.8 °F 64.5 °F 29.91 in SSE 2.3 mph 2.3 mph 42 % 0.00 in
11:27 90.9 °F 65.3 °F 29.91 in North 3.5 mph 3.5 mph 43 % 0.00 in
11:32 91.2 °F 65.6 °F 29.91 in NNE 3.5 mph 3.5 mph 43 % 0.00 in
11:37 90.9 °F 64.6 °F 29.91 in North 3.5 mph 3.5 mph 42 % 0.00 in
11:42 91.2 °F 64.2 °F 29.91 in ESE 2.3 mph 2.3 mph 41 % 0.00 in
11:47 91.6 °F 66.6 °F 29.91 in South 2.0 mph 2.0 mph 44 % 0.00 in
11:52 92.1 °F 66.4 °F 29.90 in SSE 3.5 mph 3.5 mph 43 % 0.00 in
11:57 92.6 °F 64.0 °F 29.90 in SE 1.2 mph 1.2 mph 39 % 0.00 in
12:02 93.0 °F 65.8 °F 29.90 in North 1.2 mph 1.2 mph 41 % 0.00 in
12:07 92.9 °F 66.4 °F 29.91 in ESE 1.2 mph 1.2 mph 42 % 0.00 in
12:12 92.8 °F 67.0 °F 29.90 in NNW 2.3 mph 2.3 mph 43 % 0.00 in
12:17 93.1 °F 65.9 °F 29.90 in SSE 1.2 mph 1.2 mph 41 % 0.00 in
12:22 93.1 °F 65.2 °F 29.90 in ESE 1.2 mph 1.2 mph 40 % 0.00 in
12:27 93.5 °F 66.3 °F 29.90 in ESE 1.0 mph   41 % 0.00 in
12:32 94.0 °F 65.3 °F 29.90 in West 3.5 mph 3.5 mph 39 % 0.00 in
12:37 94.1 °F 64.6 °F 29.90 in North 2.3 mph 2.3 mph 38 % 0.00 in
12:42 94.3 °F 64.8 °F 29.89 in NNW 2.3 mph 2.3 mph 38 % 0.00 in
12:43 94.3 °F 65.5 °F 29.89 in WNW 2.3 mph 2.3 mph 39 % 0.00 in
12:48 94.9 °F 66.1 °F 29.89 in NW 3.5 mph 3.5 mph 39 % 0.00 in
12:53 95.4 °F 64.2 °F 29.89 in WNW 2.3 mph 2.3 mph 36 % 0.00 in
12:58 94.9 °F 64.6 °F 29.89 in NW 2.3 mph 2.3 mph 37 % 0.00 in
13:03 95.0 °F 63.1 °F 29.89 in East 1.2 mph 1.2 mph 35 % 0.00 in
13:09 95.0 °F 63.9 °F 29.89 in NW 2.3 mph 2.3 mph 36 % 0.00 in
13:14 95.5 °F 64.3 °F 29.89 in ENE 2.3 mph 2.3 mph 36 % 0.00 in
13:19 96.2 °F 63.3 °F 29.89 in WNW 3.5 mph 3.5 mph 34 % 0.00 in
13:24 95.9 °F 62.2 °F 29.88 in SW 3.5 mph 3.5 mph 33 % 0.00 in
13:29 96.7 °F 64.5 °F 29.88 in North 1.2 mph 1.2 mph 35 % 0.00 in
13:34 97.3 °F 63.4 °F 29.88 in NW 2.0 mph 2.0 mph 33 % 0.00 in
13:39 97.3 °F 63.4 °F 29.88 in NW 3.5 mph 3.5 mph 33 % 0.00 in
13:44 97.3 °F 64.2 °F 29.88 in NNE 3.5 mph 3.5 mph 34 % 0.00 in
13:49 97.5 °F 64.4 °F 29.87 in North 2.3 mph 2.3 mph 34 % 0.00 in
13:54 97.8 °F 62.0 °F 29.87 in WNW 2.3 mph 2.3 mph 31 % 0.00 in
13:59 97.9 °F 63.0 °F 29.87 in NW 3.0 mph 3.0 mph 32 % 0.00 in
14:04 97.8 °F 61.1 °F 29.87 in ENE 2.3 mph 2.3 mph 30 % 0.00 in
14:09 98.2 °F 64.2 °F 29.87 in WSW 2.3 mph 2.3 mph 33 % 0.00 in
14:14 98.3 °F 62.5 °F 29.87 in NW 2.3 mph 2.3 mph 31 % 0.00 in
14:19 98.3 °F 61.5 °F 29.87 in NW 1.2 mph 1.2 mph 30 % 0.00 in
14:24 98.8 °F 63.8 °F 29.87 in NE 1.2 mph 1.2 mph 32 % 0.00 in
14:29 98.9 °F 59.1 °F 29.87 in West 3.5 mph 3.5 mph 27 % 0.00 in
14:34 99.1 °F 59.3 °F 29.86 in WNW 2.0 mph 2.0 mph 27 % 0.00 in
14:39 99.4 °F 59.5 °F 29.86 in NNW 2.3 mph 2.3 mph 27 % 0.00 in
14:44 99.2 °F 58.3 °F 29.86 in NW 2.3 mph 2.3 mph 26 % 0.00 in
14:46 99.2 °F 56.1 °F 29.86 in North 3.0 mph 3.0 mph 24 % 0.00 in
14:51 98.9 °F 56.9 °F 29.86 in WSW 1.2 mph 1.2 mph 25 % 0.00 in
14:56 99.7 °F 58.7 °F 29.86 in SE 1.2 mph   26 % 0.00 in
15:01 99.8 °F 56.6 °F 29.86 in NW 3.5 mph 3.5 mph 24 % 0.00 in
15:06 99.2 °F 57.2 °F 29.85 in NW 3.5 mph 3.5 mph 25 % 0.00 in
15:11 98.8 °F 56.9 °F 29.85 in NNW 3.5 mph 3.5 mph 25 % 0.00 in
15:16 98.9 °F 58.0 °F 29.85 in North 3.5 mph 3.5 mph 26 % 0.00 in
15:21 98.6 °F 58.8 °F 29.85 in NW 3.5 mph 3.5 mph 27 % 0.00 in
15:26 99.0 °F 59.2 °F 29.85 in West 2.3 mph 2.3 mph 27 % 0.00 in
15:31 99.1 °F 58.2 °F 29.84 in ENE 3.5 mph 3.5 mph 26 % 0.00 in
15:36 99.2 °F 60.4 °F 29.84 in WNW 2.3 mph 2.3 mph 28 % 0.00 in
15:41 99.5 °F 60.6 °F 29.84 in NW 2.3 mph 2.3 mph 28 % 0.00 in
15:46 99.2 °F 60.4 °F 29.84 in NW 3.5 mph 3.5 mph 28 % 0.00 in
15:51 99.1 °F 59.3 °F 29.84 in NW 4.0 mph 4.0 mph 27 % 0.00 in
15:56 99.1 °F 59.3 °F 29.84 in NW 2.3 mph 2.3 mph 27 % 0.00 in
16:01 99.2 °F 60.4 °F 29.84 in NNW 4.6 mph 4.6 mph 28 % 0.00 in
16:06 99.1 °F 58.2 °F 29.84 in NW 3.5 mph 3.5 mph 26 % 0.00 in
16:11 99.4 °F 61.5 °F 29.84 in NW 3.5 mph 3.5 mph 29 % 0.00 in
16:16 99.2 °F 58.3 °F 29.84 in North 4.6 mph 4.6 mph 26 % 0.00 in
16:21 99.2 °F 60.4 °F 29.84 in NW 4.6 mph 4.6 mph 28 % 0.00 in
16:26 99.0 °F 60.2 °F 29.83 in WNW 2.3 mph 2.3 mph 28 % 0.00 in
16:31 99.1 °F 59.3 °F 29.83 in NNW 3.5 mph 3.5 mph 27 % 0.00 in
16:36 98.8 °F 59.0 °F 29.83 in NW 4.6 mph 4.6 mph 27 % 0.00 in
16:41 98.9 °F 58.0 °F 29.83 in NW 4.0 mph 4.0 mph 26 % 0.00 in
16:46 99.4 °F 58.5 °F 29.83 in NW 3.5 mph 3.5 mph 26 % 0.00 in
16:51 99.3 °F 58.4 °F 29.83 in NW 3.5 mph 3.5 mph 26 % 0.00 in
16:56 99.2 °F 58.3 °F 29.83 in NW 4.6 mph 4.6 mph 26 % 0.00 in
17:01 99.2 °F 57.2 °F 29.83 in NW 3.5 mph 3.5 mph 25 % 0.00 in
17:02 99.2 °F 57.2 °F 29.83 in NW 4.6 mph 4.6 mph 25 % 0.00 in
17:07 99.2 °F 57.2 °F 29.83 in NW 4.0 mph 4.0 mph 25 % 0.00 in
17:12 99.3 °F 58.4 °F 29.82 in NW 2.3 mph 2.3 mph 26 % 0.00 in
17:17 99.4 °F 56.2 °F 29.82 in North 3.5 mph 3.5 mph 24 % 0.00 in
17:22 99.3 °F 58.4 °F 29.82 in WNW 4.0 mph 4.0 mph 26 % 0.00 in
17:27 99.1 °F 57.1 °F 29.82 in WNW 2.3 mph 2.3 mph 25 % 0.00 in
17:32 99.0 °F 57.0 °F 29.82 in NW 3.5 mph 3.5 mph 25 % 0.00 in
17:37 98.9 °F 56.9 °F 29.82 in NW 3.5 mph 3.5 mph 25 % 0.00 in
17:42 98.8 °F 56.9 °F 29.82 in NNW 3.5 mph 3.5 mph 25 % 0.00 in
17:47 98.7 °F 58.9 °F 29.82 in NW 3.5 mph 3.5 mph 27 % 0.00 in
17:52 98.7 °F 57.9 °F 29.82 in WNW 2.3 mph 2.3 mph 26 % 0.00 in
17:57 98.9 °F 59.1 °F 29.82 in NW 1.2 mph 1.2 mph 27 % 0.00 in
18:02 98.9 °F 58.0 °F 29.82 in NNW 2.3 mph 2.3 mph 26 % 0.00 in
18:07 98.9 °F 59.1 °F 29.82 in NW 2.3 mph 2.3 mph 27 % 0.00 in
18:12 98.5 °F 57.7 °F 29.82 in NW 2.3 mph 2.3 mph 26 % 0.00 in
18:18 98.5 °F 57.7 °F 29.82 in NW 2.3 mph 2.3 mph 26 % 0.00 in
18:23 98.4 °F 57.6 °F 29.82 in WNW 2.3 mph 2.3 mph 26 % 0.00 in
18:28 98.5 °F 55.5 °F 29.82 in NW 3.5 mph 3.5 mph 24 % 0.00 in
18:33 98.4 °F 56.5 °F 29.82 in NNW 2.3 mph 2.3 mph 25 % 0.00 in
18:38 98.3 °F 57.5 °F 29.82 in NW 2.3 mph 2.3 mph 26 % 0.00 in
18:43 98.0 °F 56.2 °F 29.81 in NW 2.3 mph 2.3 mph 25 % 0.00 in
18:48 97.8 °F 58.2 °F 29.82 in NW 1.2 mph 1.2 mph 27 % 0.00 in
18:53 97.7 °F 58.1 °F 29.82 in WNW 1.2 mph 1.2 mph 27 % 0.00 in
18:58 97.3 °F 58.7 °F 29.82 in WNW 1.2 mph 1.2 mph 28 % 0.00 in
19:03 96.8 °F 58.3 °F 29.82 in NW 1.2 mph 1.2 mph 28 % 0.00 in
19:08 96.1 °F 59.7 °F 29.82 in NW 1.2 mph 1.2 mph 30 % 0.00 in
19:13 95.6 °F 58.3 °F 29.82 in NW 1.2 mph 1.2 mph 29 % 0.00 in
19:18 95.3 °F 59.0 °F 29.82 in NW 1.2 mph 1.2 mph 30 % 0.00 in
19:23 94.6 °F 58.4 °F 29.82 in Calm     30 % 0.00 in
19:28 94.0 °F 57.8 °F 29.82 in Calm     30 % 0.00 in
19:33 93.6 °F 57.5 °F 29.82 in Calm     30 % 0.00 in
19:38 93.2 °F 58.1 °F 29.82 in WNW 1.2 mph 1.2 mph 31 % 0.00 in
19:43 92.8 °F 57.7 °F 29.82 in Calm     31 % 0.00 in
19:48 92.3 °F 59.9 °F 29.82 in Calm     34 % 0.00 in
19:53 91.9 °F 56.9 °F 29.82 in Calm     31 % 0.00 in
19:58 91.5 °F 58.3 °F 29.82 in Calm     33 % 0.00 in
20:03 90.9 °F 58.7 °F 29.82 in Calm     34 % 0.00 in
20:08 90.4 °F 59.0 °F 29.82 in Calm     35 % 0.00 in
20:13 89.8 °F 60.8 °F 29.82 in Calm     38 % 0.00 in
20:18 89.1 °F 58.7 °F 29.82 in Calm     36 % 0.00 in
20:23 88.5 °F 61.8 °F 29.83 in Calm     41 % 0.00 in
20:28 87.8 °F 60.5 °F 29.83 in Calm     40 % 0.00 in
20:33 87.2 °F 60.6 °F 29.83 in Calm     41 % 0.00 in
20:38 86.6 °F 60.8 °F 29.83 in Calm     42 % 0.00 in
20:43 86.1 °F 61.0 °F 29.83 in Calm     43 % 0.00 in
20:48 85.9 °F 60.8 °F 29.83 in Calm     43 % 0.00 in
20:53 85.9 °F 60.1 °F 29.83 in WNW 1.2 mph   42 % 0.00 in
20:58 86.6 °F 60.1 °F 29.83 in WNW 1.2 mph   41 % 0.00 in
20:59 86.8 °F 61.0 °F 29.83 in Calm     42 % 0.00 in
21:04 86.7 °F 62.8 °F 29.84 in Calm     45 % 0.00 in
21:09 86.3 °F 62.5 °F 29.83 in WNW 1.2 mph   45 % 0.00 in
21:14 86.3 °F 61.8 °F 29.84 in WNW 1.2 mph 1.2 mph 44 % 0.00 in
21:19 86.7 °F 61.5 °F 29.84 in WNW 1.2 mph   43 % 0.00 in
21:24 87.2 °F 62.0 °F 29.84 in NW 1.2 mph   43 % 0.00 in
21:30 87.3 °F 62.1 °F 29.85 in Calm     43 % 0.00 in
21:35 87.3 °F 62.1 °F 29.85 in Calm     43 % 0.00 in
21:40 87.0 °F 63.1 °F 29.85 in Calm     45 % 0.00 in
21:45 86.8 °F 62.9 °F 29.85 in NW 1.2 mph   45 % 0.00 in
21:50 86.7 °F 62.8 °F 29.85 in NW 1.2 mph 1.2 mph 45 % 0.00 in
21:55 86.6 °F 62.7 °F 29.85 in Calm     45 % 0.00 in
22:00 86.6 °F 62.7 °F 29.85 in NW 1.2 mph   45 % 0.00 in
22:05 86.6 °F 62.7 °F 29.85 in Calm     45 % 0.00 in
22:10 86.6 °F 63.4 °F 29.85 in Calm     46 % 0.00 in
22:15 86.4 °F 63.8 °F 29.86 in Calm     47 % 0.00 in
22:20 85.7 °F 64.3 °F 29.86 in Calm     49 % 0.00 in
22:25 84.7 °F 63.4 °F 29.85 in NNW 1.2 mph 1.2 mph 49 % 0.00 in
22:30 84.4 °F 63.2 °F 29.85 in NW 1.2 mph 1.2 mph 49 % 0.00 in
22:35 83.8 °F 63.7 °F 29.86 in WNW 1.2 mph   51 % 0.00 in
22:40 83.4 °F 63.4 °F 29.86 in Calm     51 % 0.00 in
22:45 83.4 °F 63.4 °F 29.86 in NW 1.2 mph 1.2 mph 51 % 0.00 in
22:47 83.4 °F 63.4 °F 29.86 in NW 1.2 mph   51 % 0.00 in
22:52 83.4 °F 63.9 °F 29.86 in Calm     52 % 0.00 in
22:57 83.3 °F 63.8 °F 29.86 in Calm     52 % 0.00 in
23:02 83.1 °F 64.2 °F 29.86 in Calm     53 % 0.00 in
23:07 82.8 °F 63.9 °F 29.86 in Calm     53 % 0.00 in
23:12 82.3 °F 64.0 °F 29.86 in Calm     54 % 0.00 in
23:17 81.7 °F 64.0 °F 29.86 in Calm     55 % 0.00 in
23:22 81.3 °F 65.1 °F 29.86 in Calm     58 % 0.00 in
23:27 80.5 °F 64.4 °F 29.86 in Calm     58 % 0.00 in
23:32 79.9 °F 64.3 °F 29.86 in Calm     59 % 0.00 in
23:37 79.5 °F 64.4 °F 29.87 in Calm     60 % 0.00 in
23:42 79.2 °F 64.1 °F 29.87 in Calm     60 % 0.00 in
23:47 79.2 °F 64.6 °F 29.87 in Calm     61 % 0.00 in
23:52 79.0 °F 64.9 °F 29.87 in Calm     62 % 0.00 in
23:57 78.7 °F 64.6 °F 29.87 in Calm     62 % 0.00 in
Park Place, Exeter, Tulare County, California, USA
Compliments of Weather Underground - 2.75 mb